This is the latest recevied weather packets stored in our database for station/object IU3IOK-3. If no packets are shown the sender has not sent any weather packets the latest 10 day(s).
| Time | Temp. | Humidity | Pressure | Rain* | Wind** | Luminosity | Snow |
|---|---|---|---|---|---|---|---|
| 1777532201 | 16.11° C | 35% | 1024.9 hPa | - | - | - | - |
| 1777531301 | 16.67° C | 33% | 1024.8 hPa | - | - | - | - |
| 1777530401 | 16.11° C | 33% | 1024.6 hPa | - | - | - | - |
| 1777529501 | 15.56° C | 35% | 1024.4 hPa | - | - | - | - |
| 1777528601 | 14.44° C | 38% | 1024.4 hPa | - | - | - | - |
| 1777527701 | 13.89° C | 39% | 1024.2 hPa | - | - | - | - |
| 1777526801 | 13.33° C | 39% | 1024.1 hPa | - | - | - | - |
| 1777525901 | 13.33° C | 40% | 1023.9 hPa | - | - | - | - |
| 1777525001 | 13.33° C | 41% | 1023.7 hPa | - | - | - | - |
| 1777524101 | 13.33° C | 41% | 1023.4 hPa | - | - | - | - |
| 1777523201 | 13.33° C | 42% | 1023.5 hPa | - | - | - | - |
| 1777522301 | 13.33° C | 42% | 1023.3 hPa | - | - | - | - |
| 1777521401 | 13.33° C | 43% | 1023.2 hPa | - | - | - | - |
| 1777520501 | 13.33° C | 44% | 1023.2 hPa | - | - | - | - |
| 1777519601 | 13.33° C | 44% | 1023.1 hPa | - | - | - | - |
| 1777518701 | 13.33° C | 45% | 1023.2 hPa | - | - | - | - |
| 1777517801 | 13.33° C | 46% | 1023.1 hPa | - | - | - | - |
| 1777516901 | 13.89° C | 46% | 1023.1 hPa | - | - | - | - |
| 1777516001 | 13.89° C | 47% | 1022.9 hPa | - | - | - | - |
| 1777515101 | 13.89° C | 46% | 1022.8 hPa | - | - | - | - |
| 1777514201 | 13.89° C | 47% | 1022.6 hPa | - | - | - | - |
| 1777513301 | 14.44° C | 47% | 1022.4 hPa | - | - | - | - |
| 1777512401 | 14.44° C | 48% | 1022.3 hPa | - | - | - | - |
| 1777511501 | 14.44° C | 49% | 1022.2 hPa | - | - | - | - |
| 1777510601 | 15° C | 50% | 1022.1 hPa | - | - | - | - |
* Rain since midnight (hover to see other rain measurements)
** Current wind speed in m/s (hover to see current wind gust speed)